• Join FlightAware (Why Join?)
  • Login
  • US Flag 
04:07PM EDT


 

Airport Tracker/Info


-or-


 

Live Flight TrackerFlight Track Log ✈ SKW7365 ✈ 13-May-2013 ✈ KMSP - KABR

Flight Track Log - Related Links

Times and Time Zones

All times are in EDT time to prevent confusion due to time zone crossing. See the SKW7365 flight status page for this flight to view local times or setup timezone preferences in your user account.

Time Position Orientation Groundspeed Altitude Reporting Facility
EDT Latitude Longitude Course Direction KTS MPH feet Rate Location/Type
10:45PM 44.8667 -93.1167 281° West 212 244 2,900  Level Minneapolis TRACON
10:46PM 44.9239 -93.0183 51° Northeast 276 318 5,300 2,340 Climbing Minneapolis Center
10:47PM 44.9576 -93.8199 281° West  Level FlightAware Approximate
10:47PM 44.9942 -93.0097 North 254 292 8,200  Level Minneapolis Center
10:48PM 44.9793 -93.9713 281° West  Level FlightAware Approximate
10:48PM 45.0469 -93.0700 321° Northwest 257 296 10,400  Level Minneapolis Center
10:49PM 44.9867 -94.1248 281° West  Level FlightAware Approximate
10:49PM 45.0511 -93.1586 274° West 285 328 11,500  Level Minneapolis Center
10:50PM 45.0070 -94.2766 281° West  Level FlightAware Approximate
10:50PM 45.0547 -93.3050 272° West 312 359 13,800  Level Minneapolis Center
10:51PM 45.0614 -93.4561 274° West 325 374 15,600 1,620 Climbing Minneapolis Center
10:52PM 45.0653 -93.5906 272° West 344 396 17,100 1,500 Climbing Minneapolis Center
10:53PM 45.0689 -93.7253 272° West 347 399 18,700 1,440 Climbing Minneapolis Center
10:54PM 45.0731 -93.8614 273° West 348 400 20,100 1,200 Climbing Minneapolis Center
10:55PM 45.0764 -93.9978 272° West 350 403 21,200 960 Climbing Minneapolis Center
10:56PM 45.0803 -94.1389 272° West 359 413 22,100 840 Climbing Minneapolis Center
10:57PM 45.0833 -94.2819 272° West 365 420 23,000 780 Climbing Minneapolis Center
10:59PM 45.0878 -94.4275 273° West 372 428 23,800 720 Climbing Minneapolis Center
11:00PM 45.0994 -94.5722 277° West 374 430 24,500 660 Climbing Minneapolis Center
11:01PM 45.1153 -94.7269 278° West 378 435 25,200 600 Climbing Minneapolis Center
11:02PM 45.1314 -94.8750 279° West 381 438 25,800 360 Climbing Minneapolis Center
11:03PM 45.1511 -95.0558 279° West 387 445 26,000 60 Climbing Minneapolis Center
11:04PM 45.1661 -95.2114 278° West 399 459 26,000  Level Minneapolis Center
11:05PM 45.1825 -95.3706 278° West 408 470 26,000  Level Minneapolis Center
11:06PM 45.1989 -95.5308 278° West 412 474 26,000  Level Minneapolis Center
11:07PM 45.2153 -95.6917 278° West 415 478 26,000  Level Minneapolis Center
11:08PM 45.2314 -95.8553 278° West 419 482 26,000  Level Minneapolis Center
11:09PM 45.2472 -96.0150 278° West 413 475 26,000  Level Minneapolis Center
11:10PM 45.2619 -96.1733 278° West 407 468 26,000  Level Minneapolis Center
11:11PM 45.2792 -96.3600 278° West 401 461 26,000  Level Minneapolis Center
11:12PM 45.2939 -96.5158 278° West 401 461 26,000  Level Minneapolis Center
11:13PM 45.3075 -96.6697 277° West 397 457 26,000  Level Minneapolis Center
11:14PM 45.3200 -96.8256 277° West 398 458 26,000 -660 Level Minneapolis Center
11:15PM 45.3356 -96.9811 278° West 400 460 24,700 -1,020 Descending Minneapolis Center
11:16PM 45.3475 -97.1331 276° West 391 450 23,800 -2,100 Descending Minneapolis Center
11:17PM 45.3636 -97.3119 277° West 386 444 20,100 -3,420 Descending Minneapolis Center
11:18PM 45.3753 -97.4631 276° West 387 445 16,800 -3,120 Descending Minneapolis Center
11:19PM 45.3856 -97.6000 276° West 357 411 13,800 -2,700 Descending Minneapolis Center
11:20PM 45.3986 -97.7494 277° West 323 372 11,400 -1,800 Descending Minneapolis Center
11:21PM 45.4008 -97.8350 272° West 288 331 10,200 -1,500 Descending Minneapolis Center
11:22PM 45.3958 -97.9567 267° West 263 303 8,400 -1,620 Descending Minneapolis Center
11:23PM 45.3956 -98.0492 270° West 245 282 6,900 -1,500 Descending Minneapolis Center
11:24PM 45.3972 -98.1425 271° West 233 268 5,400 -1,260 Descending Minneapolis Center
11:25PM 45.3964 -98.2267 269° West 224 258 4,400 -1,080 Descending Minneapolis Center
11:26PM 45.3953 -98.3006 269° West 207 238 3,300 -1,080 Descending Minneapolis Center
11:27PM 45.4058 -98.3539 286° West 171 197 2,300 -840 Descending Minneapolis Center
11:28PM 45.4303 -98.3917 313° West 143 165 1,700 -420 Descending Minneapolis Center
11:29PM 45.4536 -98.4286 312° West 141 162 1,500 -240 Descending Minneapolis Center